createdAt,value
2023-04-04T00:01:09.939Z,3.00
2023-04-04T00:03:38.776Z,3.00
2023-04-04T00:06:08.730Z,3.00
2023-04-04T00:08:37.359Z,3.00
2023-04-04T00:11:07.423Z,2.90
2023-04-04T00:13:36.069Z,2.90
2023-04-04T00:16:04.481Z,3.00
2023-04-04T00:18:33.436Z,2.90
2023-04-04T00:21:01.598Z,2.90
2023-04-04T00:23:31.471Z,2.90
2023-04-04T00:25:59.972Z,2.80
2023-04-04T00:28:28.534Z,2.80
2023-04-04T00:30:56.868Z,2.80
2023-04-04T00:33:25.302Z,2.80
2023-04-04T00:35:53.698Z,2.80
2023-04-04T00:38:21.948Z,2.80
2023-04-04T00:40:52.150Z,2.80
2023-04-04T00:43:20.711Z,2.80
2023-04-04T00:45:49.051Z,2.70
2023-04-04T00:48:17.714Z,2.70
2023-04-04T00:50:45.933Z,2.60
2023-04-04T00:53:14.905Z,2.60
2023-04-04T00:55:43.920Z,2.60
2023-04-04T00:58:14.232Z,2.50
2023-04-04T01:00:42.779Z,2.50
2023-04-04T01:03:12.898Z,2.50
2023-04-04T01:05:42.615Z,2.50
2023-04-04T01:08:12.231Z,2.50
2023-04-04T01:10:40.965Z,2.50
2023-04-04T01:13:10.922Z,2.50
2023-04-04T01:15:41.144Z,2.50
2023-04-04T01:18:12.957Z,2.50
2023-04-04T01:20:48.347Z,2.50
2023-04-04T01:23:18.921Z,2.50
2023-04-04T01:25:50.928Z,2.50
2023-04-04T01:28:19.654Z,2.50
2023-04-04T01:30:47.918Z,2.50
2023-04-04T01:33:24.131Z,2.50
2023-04-04T01:36:02.697Z,2.40
2023-04-04T01:38:39.396Z,2.40
2023-04-04T01:41:12.124Z,2.40
2023-04-04T01:43:47.355Z,2.30
2023-04-04T01:46:18.656Z,2.30
2023-04-04T01:48:49.554Z,2.30
2023-04-04T01:51:23.725Z,2.20
2023-04-04T01:53:53.917Z,2.10
2023-04-04T01:56:24.095Z,2.20
2023-04-04T01:58:53.765Z,2.10
2023-04-04T02:01:22.523Z,2.10
2023-04-04T02:03:51.060Z,2.10
2023-04-04T02:06:19.317Z,2.10
2023-04-04T02:08:48.446Z,2.10
2023-04-04T02:11:17.071Z,2.10
2023-04-04T02:13:47.474Z,2.10
2023-04-04T02:16:19.645Z,2.10
2023-04-04T02:18:49.213Z,2.00
2023-04-04T02:21:17.399Z,2.00
2023-04-04T02:23:45.717Z,2.00
2023-04-04T02:26:14.257Z,2.00
2023-04-04T02:28:42.920Z,2.00
2023-04-04T02:31:13.028Z,1.90
2023-04-04T02:33:41.655Z,1.90
2023-04-04T02:36:12.921Z,1.80
2023-04-04T02:38:42.076Z,1.80
2023-04-04T02:41:11.240Z,1.80
2023-04-04T02:43:39.457Z,1.80
2023-04-04T02:46:20.553Z,1.70
2023-04-04T02:48:52.205Z,1.70
2023-04-04T02:51:21.251Z,1.60
2023-04-04T02:53:49.467Z,1.60
2023-04-04T02:56:23.865Z,1.60
2023-04-04T02:58:52.086Z,1.60
2023-04-04T03:01:20.765Z,1.50
2023-04-04T03:03:49.172Z,1.50
2023-04-04T03:06:19.159Z,1.40
2023-04-04T03:08:49.617Z,1.30
2023-04-04T03:11:21.744Z,1.20
2023-04-04T03:13:52.349Z,1.20
2023-04-04T03:16:27.629Z,1.20
2023-04-04T03:18:56.817Z,1.10
2023-04-04T03:21:27.746Z,1.10
2023-04-04T03:23:58.596Z,1.10
2023-04-04T03:26:28.873Z,1.10
2023-04-04T03:28:57.283Z,1.10
2023-04-04T03:31:26.779Z,1.00
2023-04-04T03:33:55.446Z,1.00
2023-04-04T03:36:24.059Z,0.90
2023-04-04T03:38:54.022Z,1.00
2023-04-04T03:41:22.546Z,0.90
2023-04-04T03:43:51.050Z,0.90
2023-04-04T03:46:19.805Z,0.90
2023-04-04T03:48:48.717Z,0.90
2023-04-04T03:51:24.694Z,0.90
2023-04-04T03:53:54.416Z,0.90
2023-04-04T03:56:22.665Z,0.90
2023-04-04T03:58:51.308Z,0.90
2023-04-04T04:01:22.044Z,0.90
2023-04-04T04:03:50.891Z,1.00
2023-04-04T04:06:19.509Z,0.90
2023-04-04T04:08:48.273Z,1.00
2023-04-04T04:11:17.822Z,1.00
2023-04-04T04:13:46.058Z,1.00
2023-04-04T04:16:14.899Z,0.90
2023-04-04T04:18:43.398Z,0.90
2023-04-04T04:21:17.046Z,0.90
2023-04-04T04:23:45.632Z,0.90
2023-04-04T04:26:14.124Z,0.90
2023-04-04T04:28:44.075Z,0.90
2023-04-04T04:31:16.851Z,0.80
2023-04-04T04:33:49.732Z,0.70
2023-04-04T04:36:22.003Z,0.70
2023-04-04T04:38:57.764Z,0.70
2023-04-04T04:41:29.937Z,0.70
2023-04-04T04:43:59.968Z,0.80
2023-04-04T04:46:28.984Z,0.70
2023-04-04T04:48:57.812Z,0.70
2023-04-04T04:51:30.283Z,0.80
2023-04-04T04:54:00.202Z,0.70
2023-04-04T04:56:30.361Z,0.80
2023-04-04T04:59:09.157Z,0.80
2023-04-04T05:01:40.178Z,0.80
2023-04-04T05:04:09.114Z,0.80
2023-04-04T05:06:46.943Z,0.80
2023-04-04T05:09:15.684Z,0.80
2023-04-04T05:11:44.330Z,0.80
2023-04-04T05:14:15.398Z,0.80
2023-04-04T05:16:53.181Z,0.80
2023-04-04T05:19:24.112Z,0.80
2023-04-04T05:21:56.125Z,0.80
2023-04-04T05:24:45.589Z,0.80
2023-04-04T05:27:17.485Z,0.80
2023-04-04T05:29:51.784Z,0.80
2023-04-04T05:32:22.613Z,0.80
2023-04-04T05:35:00.483Z,0.80
2023-04-04T05:37:34.832Z,0.90
2023-04-04T05:40:04.120Z,1.00
2023-04-04T05:42:32.389Z,1.00
2023-04-04T05:45:02.563Z,1.10
2023-04-04T05:47:31.916Z,1.20
2023-04-04T05:50:04.015Z,1.30
2023-04-04T05:52:35.173Z,1.40
2023-04-04T05:55:04.517Z,1.40
2023-04-04T05:57:34.269Z,1.40
2023-04-04T06:00:05.958Z,1.50
2023-04-04T06:02:43.113Z,1.50
2023-04-04T06:05:17.758Z,1.50
2023-04-04T06:07:46.194Z,1.50
2023-04-04T06:10:14.752Z,1.70
2023-04-04T06:12:43.202Z,1.90
2023-04-04T06:15:14.807Z,2.10
2023-04-04T06:17:44.606Z,2.40
2023-04-04T06:20:13.817Z,2.70
2023-04-04T06:22:43.402Z,2.70
2023-04-04T06:25:14.976Z,2.80
2023-04-04T06:27:44.149Z,2.90
2023-04-04T06:30:17.541Z,3.00
2023-04-04T06:32:50.000Z,3.20
2023-04-04T06:35:22.281Z,4.00
2023-04-04T06:37:58.840Z,4.00
2023-04-04T06:40:28.704Z,4.10
2023-04-04T06:42:58.564Z,4.00
2023-04-04T06:45:38.092Z,4.00
2023-04-04T06:48:06.589Z,4.20
2023-04-04T06:50:36.565Z,4.50
2023-04-04T06:53:07.991Z,5.30
2023-04-04T06:55:37.099Z,5.70
2023-04-04T06:58:07.319Z,5.80
2023-04-04T07:00:37.745Z,6.70
2023-04-04T07:03:06.746Z,7.00
2023-04-04T07:05:39.453Z,7.30
2023-04-04T07:08:07.812Z,7.70
2023-04-04T07:10:36.061Z,8.40
2023-04-04T07:13:04.583Z,8.50
2023-04-04T07:15:33.140Z,7.50
2023-04-04T07:20:32.308Z,6.90
2023-04-04T07:23:00.570Z,6.90
2023-04-04T07:25:28.863Z,6.20
2023-04-04T07:28:09.515Z,5.80
2023-04-04T07:30:40.709Z,5.70
2023-04-04T07:33:11.174Z,7.00
2023-04-04T07:35:39.454Z,8.10
2023-04-04T07:38:08.067Z,8.50
2023-04-04T07:40:36.288Z,8.70
2023-04-04T07:43:04.862Z,8.40
2023-04-04T07:45:33.080Z,8.90
2023-04-04T07:48:02.083Z,9.30
2023-04-04T07:50:31.680Z,9.20
2023-04-04T07:53:00.219Z,9.30
2023-04-04T07:55:29.028Z,9.80
2023-04-04T07:57:58.547Z,10.30
2023-04-04T08:00:27.369Z,10.90
2023-04-04T08:02:59.106Z,10.90
2023-04-04T08:05:27.649Z,10.70
2023-04-04T08:07:57.681Z,10.40
2023-04-04T08:10:26.075Z,10.20
2023-04-04T08:12:54.604Z,10.00
2023-04-04T08:15:22.807Z,9.60
2023-04-04T08:17:51.393Z,9.60
2023-04-04T08:20:19.750Z,9.50
2023-04-04T08:22:48.368Z,10.00
2023-04-04T08:25:18.551Z,10.00
2023-04-04T08:27:46.993Z,10.30
2023-04-04T08:30:15.834Z,11.20
2023-04-04T08:32:46.044Z,11.80
2023-04-04T08:35:14.477Z,12.40
2023-04-04T08:37:46.261Z,12.70
2023-04-04T08:40:15.820Z,12.00
2023-04-04T08:42:46.237Z,11.60
2023-04-04T08:45:18.533Z,11.80
2023-04-04T08:47:50.617Z,11.90
2023-04-04T08:50:20.384Z,11.20
2023-04-04T08:52:50.564Z,10.30
2023-04-04T08:55:20.191Z,9.50
2023-04-04T08:57:50.460Z,8.70
2023-04-04T09:00:21.524Z,8.10
2023-04-04T09:02:58.960Z,8.20
2023-04-04T09:05:27.875Z,7.90
2023-04-04T09:07:57.208Z,8.10
2023-04-04T09:10:26.057Z,8.40
2023-04-04T09:13:08.666Z,8.40
2023-04-04T09:15:51.270Z,8.50
2023-04-04T09:18:20.116Z,9.20
2023-04-04T09:20:49.424Z,9.40
2023-04-04T09:23:20.662Z,9.40
2023-04-04T09:26:03.236Z,9.20
2023-04-04T09:28:35.193Z,9.00
2023-04-04T09:31:05.971Z,9.00
2023-04-04T09:33:35.711Z,8.70
2023-04-04T09:36:07.604Z,8.50
2023-04-04T09:38:39.395Z,8.30
2023-04-04T09:41:09.742Z,8.20
2023-04-04T09:43:41.495Z,8.40
2023-04-04T09:46:10.831Z,8.50
2023-04-04T09:48:39.451Z,8.60
2023-04-04T09:51:08.892Z,8.50
2023-04-04T09:53:38.133Z,8.40
2023-04-04T09:56:08.250Z,8.50
2023-04-04T09:58:38.019Z,8.70
2023-04-04T10:01:11.447Z,8.40
2023-04-04T10:03:40.510Z,8.60
2023-04-04T10:06:10.834Z,8.90
2023-04-04T10:08:41.646Z,9.20
2023-04-04T10:11:12.231Z,9.40
2023-04-04T10:13:44.221Z,9.60
2023-04-04T10:16:15.868Z,9.20
2023-04-04T10:18:44.562Z,9.20
2023-04-04T10:21:15.568Z,9.70
2023-04-04T10:23:47.671Z,9.90
2023-04-04T10:26:16.427Z,10.80
2023-04-04T10:28:45.525Z,10.70
2023-04-04T10:31:24.005Z,11.10
2023-04-04T10:34:05.918Z,12.30
2023-04-04T10:36:41.834Z,12.70
2023-04-04T10:39:12.192Z,12.80
2023-04-04T10:41:42.411Z,12.40
2023-04-04T10:44:19.763Z,11.80
2023-04-04T10:46:54.402Z,11.10
2023-04-04T10:49:24.036Z,10.40
2023-04-04T10:51:56.839Z,9.40
2023-04-04T10:54:29.155Z,8.90
2023-04-04T10:57:01.191Z,8.70
2023-04-04T10:59:31.863Z,8.50
2023-04-04T11:02:04.299Z,8.50
2023-04-04T11:04:34.563Z,8.80
2023-04-04T11:07:14.286Z,9.70
2023-04-04T11:09:53.426Z,11.00
2023-04-04T11:12:24.907Z,12.00
2023-04-04T11:14:58.213Z,12.50
2023-04-04T11:17:43.846Z,12.00
2023-04-04T11:20:12.961Z,11.50
2023-04-04T11:22:42.730Z,11.00
2023-04-04T11:25:36.635Z,10.00
2023-04-04T11:28:10.456Z,9.30
2023-04-04T11:30:48.524Z,9.80
2023-04-04T11:33:29.328Z,10.30
2023-04-04T11:36:06.202Z,10.90
2023-04-04T11:38:41.252Z,10.90
2023-04-04T11:41:10.715Z,11.40
2023-04-04T11:43:47.089Z,12.00
2023-04-04T11:46:19.742Z,12.50
2023-04-04T11:48:50.241Z,12.20
2023-04-04T11:51:20.163Z,11.90
2023-04-04T11:53:49.167Z,11.30
2023-04-04T11:56:17.611Z,10.60
2023-04-04T11:58:53.863Z,10.20
2023-04-04T12:01:27.093Z,9.90
2023-04-04T12:03:57.782Z,10.10
2023-04-04T12:06:27.181Z,10.60
2023-04-04T12:08:55.903Z,10.80
2023-04-04T12:11:28.839Z,11.30
2023-04-04T12:13:57.312Z,11.90
2023-04-04T12:16:25.645Z,12.00
2023-04-04T12:18:54.279Z,11.70
2023-04-04T12:21:25.637Z,11.60
2023-04-04T12:23:54.709Z,11.60
2023-04-04T12:26:23.483Z,11.20
2023-04-04T12:28:55.359Z,11.00
2023-04-04T12:31:24.319Z,10.90
2023-04-04T12:33:53.396Z,10.60
2023-04-04T12:36:25.895Z,10.10
2023-04-04T12:39:01.828Z,9.80
2023-04-04T12:41:30.025Z,9.60
2023-04-04T12:44:03.632Z,9.50
2023-04-04T12:46:38.808Z,9.30
2023-04-04T12:49:08.227Z,9.20
2023-04-04T12:51:39.313Z,9.40
2023-04-04T12:54:08.586Z,10.10
2023-04-04T12:56:37.309Z,10.50
2023-04-04T12:59:10.928Z,10.60
2023-04-04T13:01:39.689Z,10.90
2023-04-04T13:04:10.586Z,10.80
2023-04-04T13:06:40.761Z,10.50
2023-04-04T13:09:18.999Z,10.30
2023-04-04T13:12:01.930Z,9.80
2023-04-04T13:14:57.396Z,9.70
2023-04-04T13:17:25.638Z,9.70
2023-04-04T13:19:53.911Z,10.20
2023-04-04T13:22:23.498Z,11.10
2023-04-04T13:24:52.068Z,11.70
2023-04-04T13:27:20.288Z,12.50
2023-04-04T13:29:48.918Z,12.80
2023-04-04T13:32:17.153Z,12.70
2023-04-04T13:34:45.442Z,12.60
2023-04-04T13:37:13.682Z,12.60
2023-04-04T13:39:43.640Z,12.40
2023-04-04T13:42:12.255Z,12.00
2023-04-04T13:44:40.715Z,11.50
2023-04-04T13:47:08.945Z,11.10
2023-04-04T13:49:37.157Z,10.80
2023-04-04T13:52:05.386Z,10.70
2023-04-04T13:54:34.308Z,10.70
2023-04-04T13:57:03.929Z,10.50
2023-04-04T13:59:32.694Z,10.10
2023-04-04T14:02:01.068Z,9.90
2023-04-04T14:04:29.866Z,9.50
2023-04-04T14:06:58.159Z,9.40
2023-04-04T14:09:26.866Z,9.60
2023-04-04T14:11:55.142Z,10.10
2023-04-04T14:14:24.897Z,10.30
2023-04-04T14:16:53.206Z,10.90
2023-04-04T14:19:22.194Z,11.30
2023-04-04T14:21:50.511Z,11.70
2023-04-04T14:24:19.798Z,11.70
2023-04-04T14:26:48.397Z,11.30
2023-04-04T14:29:17.736Z,11.10
2023-04-04T14:31:47.467Z,11.00
2023-04-04T14:34:16.435Z,10.80
2023-04-04T14:36:44.892Z,10.80
2023-04-04T14:39:13.233Z,10.40
2023-04-04T14:41:41.605Z,10.00
2023-04-04T14:44:09.963Z,9.90
2023-04-04T14:46:38.295Z,10.00
2023-04-04T14:49:08.890Z,9.80
2023-04-04T14:51:37.298Z,9.30
2023-04-04T14:54:05.795Z,8.70
2023-04-04T14:56:34.049Z,8.70
2023-04-04T14:59:05.713Z,8.50
2023-04-04T15:01:34.091Z,8.40
2023-04-04T15:04:04.014Z,8.70
2023-04-04T15:06:36.751Z,8.70
2023-04-04T15:09:06.104Z,8.80
2023-04-04T15:11:35.368Z,8.90
2023-04-04T15:14:04.131Z,9.10
2023-04-04T15:16:33.366Z,9.30
2023-04-04T15:19:02.652Z,9.50
2023-04-04T15:21:31.723Z,9.40
2023-04-04T15:24:01.818Z,9.30
2023-04-04T15:26:30.138Z,9.00
2023-04-04T15:28:58.493Z,8.80
2023-04-04T15:31:28.292Z,8.60
2023-04-04T15:33:59.518Z,8.50
2023-04-04T15:36:28.964Z,8.50
2023-04-04T15:38:57.430Z,8.60
2023-04-04T15:41:27.153Z,8.60
2023-04-04T15:43:55.862Z,8.50
2023-04-04T15:46:24.246Z,8.30
2023-04-04T15:48:53.422Z,8.00
2023-04-04T15:51:22.182Z,7.90
2023-04-04T15:53:50.400Z,7.70
2023-04-04T15:56:18.645Z,7.60
2023-04-04T15:58:48.650Z,7.40
2023-04-04T16:01:17.011Z,7.20
2023-04-04T16:03:45.712Z,7.10
2023-04-04T16:06:13.985Z,7.00
2023-04-04T16:08:44.575Z,7.00
2023-04-04T16:11:13.190Z,6.90
2023-04-04T16:13:42.091Z,6.90
2023-04-04T16:16:11.848Z,6.90
2023-04-04T16:18:41.400Z,6.80
2023-04-04T16:21:09.796Z,6.70
2023-04-04T16:23:39.079Z,6.60
2023-04-04T16:26:07.349Z,6.60
2023-04-04T16:28:36.256Z,6.50
2023-04-04T16:31:04.559Z,6.50
2023-04-04T16:33:34.218Z,6.40
2023-04-04T16:36:02.859Z,6.30
2023-04-04T16:38:31.284Z,6.20
2023-04-04T16:41:01.657Z,6.10
2023-04-04T16:43:30.271Z,6.10
2023-04-04T16:45:58.533Z,6.00
2023-04-04T16:48:27.201Z,5.90
2023-04-04T16:50:57.728Z,5.90
2023-04-04T16:53:26.340Z,5.90
2023-04-04T16:55:54.854Z,5.90
2023-04-04T16:58:23.616Z,5.80
2023-04-04T17:00:52.077Z,5.80
2023-04-04T17:03:20.487Z,5.80
2023-04-04T17:05:49.190Z,5.80
2023-04-04T17:08:19.333Z,5.70
2023-04-04T17:10:47.499Z,5.70
2023-04-04T17:13:16.332Z,5.60
2023-04-04T17:15:44.651Z,5.50
2023-04-04T17:18:12.901Z,5.50
2023-04-04T17:20:42.763Z,5.40
2023-04-04T17:23:11.568Z,5.40
2023-04-04T17:25:41.103Z,5.30
2023-04-04T17:28:09.672Z,5.20
2023-04-04T17:30:38.090Z,5.20
2023-04-04T17:33:06.533Z,5.10
2023-04-04T17:35:34.788Z,5.10
2023-04-04T17:38:03.115Z,5.00
2023-04-04T17:40:31.305Z,4.90
2023-04-04T17:43:00.901Z,4.90
2023-04-04T17:45:29.466Z,4.80
2023-04-04T17:47:58.180Z,4.80
2023-04-04T17:50:28.171Z,4.70
2023-04-04T17:52:57.103Z,4.60
2023-04-04T17:55:26.300Z,4.60
2023-04-04T17:57:54.534Z,4.50
2023-04-04T18:00:24.898Z,4.50
2023-04-04T18:02:53.237Z,4.40
2023-04-04T18:05:21.607Z,4.40
2023-04-04T18:07:49.803Z,4.40
2023-04-04T18:10:18.217Z,4.40
2023-04-04T18:12:47.127Z,4.30
2023-04-04T18:15:16.129Z,4.20
2023-04-04T18:17:47.114Z,4.20
2023-04-04T18:20:24.434Z,4.20
2023-04-04T18:23:01.012Z,4.30
2023-04-04T18:25:29.251Z,4.20
2023-04-04T18:27:58.220Z,4.20
2023-04-04T18:30:27.953Z,4.20
2023-04-04T18:32:58.413Z,4.30
2023-04-04T18:35:26.692Z,4.40
2023-04-04T18:37:54.979Z,4.40
2023-04-04T18:40:23.631Z,4.40
2023-04-04T18:42:53.495Z,4.50
2023-04-04T18:45:29.904Z,4.50
2023-04-04T18:48:03.449Z,4.60
2023-04-04T18:50:32.680Z,4.60
2023-04-04T18:53:00.910Z,4.60
2023-04-04T18:55:29.886Z,4.60
2023-04-04T18:57:58.149Z,4.60
2023-04-04T19:00:26.736Z,4.60
2023-04-04T19:02:54.980Z,4.60
2023-04-04T19:05:26.610Z,4.60
2023-04-04T19:07:55.435Z,4.60
2023-04-04T19:10:23.864Z,4.60
2023-04-04T19:12:52.079Z,4.60
2023-04-04T19:15:21.209Z,4.60
2023-04-04T19:17:49.388Z,4.60
2023-04-04T19:20:17.837Z,4.70
2023-04-04T19:22:48.087Z,4.60
2023-04-04T19:25:16.996Z,4.70
2023-04-04T19:27:45.561Z,4.70
2023-04-04T19:30:42.442Z,4.70
2023-04-04T19:33:11.926Z,4.70
2023-04-04T19:35:55.094Z,4.70
2023-04-04T19:38:28.195Z,4.70
2023-04-04T19:40:58.973Z,4.70
2023-04-04T19:43:28.284Z,4.70
2023-04-04T19:45:58.710Z,4.70
2023-04-04T19:48:46.073Z,4.70
2023-04-04T19:51:47.594Z,4.70
2023-04-04T19:54:17.271Z,4.70
2023-04-04T19:56:47.938Z,4.70
2023-04-04T19:59:53.332Z,4.70
2023-04-04T20:02:53.538Z,4.70
2023-04-04T20:05:57.759Z,4.70
2023-04-04T20:08:30.251Z,4.70
2023-04-04T20:11:00.371Z,4.70
2023-04-04T20:13:28.570Z,4.60
2023-04-04T20:16:08.650Z,4.60
2023-04-04T20:18:38.725Z,4.60
2023-04-04T20:21:09.308Z,4.60
2023-04-04T20:23:52.465Z,4.50
2023-04-04T20:26:51.559Z,4.50
2023-04-04T20:29:22.743Z,4.50
2023-04-04T20:31:53.674Z,4.50
2023-04-04T20:34:42.001Z,4.40
2023-04-04T20:37:13.830Z,4.40
2023-04-04T20:39:46.679Z,4.40
2023-04-04T20:42:38.234Z,4.30
2023-04-04T20:45:44.841Z,4.30
2023-04-04T20:48:35.524Z,4.20
2023-04-04T20:51:03.914Z,4.10
2023-04-04T20:53:32.805Z,4.00
2023-04-04T20:56:02.364Z,3.80
2023-04-04T20:58:32.208Z,3.70
2023-04-04T21:01:01.822Z,3.60
2023-04-04T21:03:36.397Z,3.60
2023-04-04T21:06:11.772Z,3.50
2023-04-04T21:08:43.927Z,3.50
2023-04-04T21:11:14.062Z,3.40
2023-04-04T21:13:45.645Z,3.30
2023-04-04T21:16:16.846Z,3.20
2023-04-04T21:18:46.339Z,3.20
2023-04-04T21:21:18.654Z,3.10
2023-04-04T21:23:49.881Z,3.00
2023-04-04T21:26:32.798Z,3.00
2023-04-04T21:29:04.989Z,2.90
2023-04-04T21:31:37.261Z,2.90
2023-04-04T21:34:11.788Z,2.90
2023-04-04T21:36:40.869Z,2.80
2023-04-04T21:39:12.778Z,2.70
2023-04-04T21:41:42.474Z,2.60
2023-04-04T21:44:12.094Z,2.60
2023-04-04T21:46:42.343Z,2.60
2023-04-04T21:49:11.439Z,2.60
2023-04-04T21:51:40.343Z,2.50
2023-04-04T21:54:08.639Z,2.40
2023-04-04T21:56:38.743Z,2.40
2023-04-04T21:59:09.271Z,2.40
2023-04-04T22:01:40.742Z,2.30
2023-04-04T22:04:09.286Z,2.30
2023-04-04T22:06:37.929Z,2.30
2023-04-04T22:09:06.645Z,2.30
2023-04-04T22:11:39.168Z,2.30
2023-04-04T22:14:08.121Z,2.20
2023-04-04T22:16:40.249Z,2.10
2023-04-04T22:19:11.016Z,2.00
2023-04-04T22:21:48.494Z,2.00
2023-04-04T22:24:18.287Z,2.00
2023-04-04T22:26:47.787Z,2.00
2023-04-04T22:29:16.057Z,1.90
2023-04-04T22:31:46.149Z,1.90
2023-04-04T22:34:15.372Z,2.00
2023-04-04T22:36:44.620Z,2.00
2023-04-04T22:39:16.212Z,2.00
2023-04-04T22:41:45.826Z,2.00
2023-04-04T22:44:14.211Z,2.00
2023-04-04T22:46:43.017Z,2.10
2023-04-04T22:49:13.421Z,2.10
2023-04-04T22:51:45.680Z,2.10
2023-04-04T22:54:15.596Z,2.10
2023-04-04T22:56:44.591Z,2.10
2023-04-04T22:59:13.112Z,2.10
2023-04-04T23:01:42.780Z,2.20
2023-04-04T23:04:12.515Z,2.30
2023-04-04T23:06:41.288Z,2.40
2023-04-04T23:09:09.525Z,2.50
2023-04-04T23:11:39.214Z,2.50
2023-04-04T23:14:09.633Z,2.50
2023-04-04T23:16:38.963Z,2.60
2023-04-04T23:19:07.595Z,2.60
2023-04-04T23:21:38.334Z,2.70
2023-04-04T23:24:08.125Z,2.70
2023-04-04T23:26:36.510Z,2.80
2023-04-04T23:29:05.716Z,2.80
2023-04-04T23:31:34.193Z,2.80
2023-04-04T23:34:02.442Z,2.70
2023-04-04T23:36:31.266Z,2.70
2023-04-04T23:39:00.863Z,2.70
2023-04-04T23:41:29.394Z,2.70
2023-04-04T23:43:57.686Z,2.80
2023-04-04T23:46:26.693Z,2.80
2023-04-04T23:48:55.049Z,2.80
2023-04-04T23:51:23.465Z,2.80
2023-04-04T23:53:51.704Z,2.70
2023-04-04T23:56:21.292Z,2.70
2023-04-04T23:58:49.564Z,2.70
